createdAt,value
2018-08-24T00:00:24.580Z,20.97
2018-08-24T00:02:53.552Z,21.00
2018-08-24T00:05:22.512Z,20.99
2018-08-24T00:07:51.183Z,20.93
2018-08-24T00:10:19.933Z,20.89
2018-08-24T00:12:49.322Z,20.90
2018-08-24T00:15:18.766Z,20.88
2018-08-24T00:17:48.197Z,20.87
2018-08-24T00:20:17.029Z,20.88
2018-08-24T00:22:46.327Z,20.87
2018-08-24T00:25:15.904Z,20.84
2018-08-24T00:27:44.837Z,20.81
2018-08-24T00:30:13.714Z,20.75
2018-08-24T00:32:42.703Z,20.73
2018-08-24T00:35:11.582Z,20.70
2018-08-24T00:37:40.434Z,20.68
2018-08-24T00:40:09.365Z,20.62
2018-08-24T00:42:38.144Z,20.59
2018-08-24T00:45:06.998Z,20.59
2018-08-24T00:47:36.052Z,20.59
2018-08-24T00:50:05.516Z,20.59
2018-08-24T00:52:34.212Z,20.61
2018-08-24T00:55:02.884Z,20.60
2018-08-24T00:57:32.139Z,20.58
2018-08-24T01:00:00.938Z,20.55
2018-08-24T01:02:29.717Z,20.54
2018-08-24T01:04:58.709Z,20.57
2018-08-24T01:07:27.602Z,20.54
2018-08-24T01:09:56.395Z,20.56
2018-08-24T01:12:25.158Z,20.58
2018-08-24T01:14:54.066Z,20.57
2018-08-24T01:17:28.175Z,20.59
2018-08-24T01:19:57.022Z,20.58
2018-08-24T01:22:25.962Z,20.59
2018-08-24T01:24:54.738Z,20.53
2018-08-24T01:27:23.404Z,20.53
2018-08-24T01:29:52.114Z,20.53
2018-08-24T01:32:20.726Z,20.57
2018-08-24T01:34:49.423Z,20.53
2018-08-24T01:37:18.612Z,20.54
2018-08-24T01:39:47.532Z,20.51
2018-08-24T01:42:16.251Z,20.41
2018-08-24T01:44:45.862Z,20.37
2018-08-24T01:47:14.977Z,20.32
2018-08-24T01:49:44.738Z,20.27
2018-08-24T01:52:13.687Z,20.21
2018-08-24T01:54:42.616Z,20.19
2018-08-24T01:57:11.588Z,20.20
2018-08-24T01:59:40.307Z,20.18
2018-08-24T02:02:09.194Z,20.11
2018-08-24T02:04:38.078Z,20.06
2018-08-24T02:07:06.814Z,20.03
2018-08-24T02:09:35.501Z,19.94
2018-08-24T02:12:04.266Z,19.94
2018-08-24T02:14:40.730Z,19.95
2018-08-24T02:17:14.858Z,19.89
2018-08-24T02:19:50.144Z,19.82
2018-08-24T02:22:20.932Z,19.77
2018-08-24T02:24:53.553Z,19.73
2018-08-24T02:27:26.445Z,19.68
2018-08-24T02:29:58.456Z,19.62
2018-08-24T02:32:30.044Z,19.53
2018-08-24T02:35:00.848Z,19.46
2018-08-24T02:37:30.566Z,19.41
2018-08-24T02:39:59.262Z,19.37
2018-08-24T02:42:27.961Z,19.29
2018-08-24T02:44:56.755Z,19.24
2018-08-24T02:47:25.682Z,19.20
2018-08-24T02:49:54.418Z,19.15
2018-08-24T02:52:23.255Z,19.10
2018-08-24T02:54:51.995Z,19.04
2018-08-24T02:57:21.337Z,18.99
2018-08-24T02:59:50.081Z,18.92
2018-08-24T03:02:18.824Z,18.88
2018-08-24T03:04:48.375Z,18.83
2018-08-24T03:07:17.366Z,18.78
2018-08-24T03:09:46.212Z,18.78
2018-08-24T03:12:15.061Z,18.77
2018-08-24T03:14:43.942Z,18.72
2018-08-24T03:17:17.720Z,18.65
2018-08-24T03:19:46.467Z,18.51
2018-08-24T03:22:15.255Z,18.40
2018-08-24T03:24:44.023Z,18.27
2018-08-24T03:27:12.763Z,16.95
2018-08-24T03:29:41.541Z,18.21
2018-08-24T03:32:10.231Z,18.22
2018-08-24T03:34:38.964Z,18.18
2018-08-24T03:37:07.910Z,18.08
2018-08-24T03:39:36.592Z,18.06
2018-08-24T03:42:05.354Z,18.07
2018-08-24T03:44:34.020Z,18.04
2018-08-24T03:47:02.783Z,18.06
2018-08-24T03:49:31.520Z,18.04
2018-08-24T03:52:00.253Z,17.99
2018-08-24T03:54:28.932Z,17.97
2018-08-24T03:56:58.675Z,18.08
2018-08-24T03:59:27.785Z,18.08
2018-08-24T04:01:57.078Z,18.05
2018-08-24T04:04:26.058Z,18.04
2018-08-24T04:06:54.779Z,18.11
2018-08-24T04:09:23.539Z,18.09
2018-08-24T04:11:52.219Z,18.10
2018-08-24T04:14:20.894Z,18.21
2018-08-24T04:16:54.796Z,18.89
2018-08-24T04:19:29.298Z,19.19
2018-08-24T04:21:58.558Z,19.48
2018-08-24T04:24:27.183Z,19.73
2018-08-24T04:26:56.722Z,19.85
2018-08-24T04:29:25.834Z,20.15
2018-08-24T04:31:54.566Z,20.49
2018-08-24T04:34:23.303Z,20.80
2018-08-24T04:36:52.014Z,20.73
2018-08-24T04:39:20.717Z,20.47
2018-08-24T04:41:49.476Z,20.52
2018-08-24T04:44:18.198Z,20.85
2018-08-24T04:46:46.983Z,21.02
2018-08-24T04:49:15.724Z,20.95
2018-08-24T04:51:44.431Z,20.97
2018-08-24T04:54:13.185Z,21.04
2018-08-24T04:56:41.909Z,21.18
2018-08-24T04:59:10.627Z,21.24
2018-08-24T05:01:39.270Z,20.70
2018-08-24T05:04:07.950Z,20.64
2018-08-24T05:06:36.586Z,20.48
2018-08-24T05:09:08.606Z,20.68
2018-08-24T05:11:37.993Z,21.00
2018-08-24T05:14:06.908Z,21.28
2018-08-24T05:16:35.674Z,21.67
2018-08-24T05:19:04.462Z,21.92
2018-08-24T05:21:33.233Z,21.75
2018-08-24T05:24:02.146Z,21.85
2018-08-24T05:26:30.828Z,22.05
2018-08-24T05:28:59.525Z,22.37
2018-08-24T05:31:28.304Z,22.58
2018-08-24T05:33:57.031Z,22.74
2018-08-24T05:36:25.861Z,23.31
2018-08-24T05:38:54.541Z,23.42
2018-08-24T05:41:23.382Z,23.23
2018-08-24T05:43:52.065Z,22.50
2018-08-24T05:46:20.742Z,23.41
2018-08-24T05:48:49.561Z,23.58
2018-08-24T05:51:18.234Z,24.02
2018-08-24T05:53:46.960Z,23.75
2018-08-24T05:56:15.638Z,23.62
2018-08-24T05:58:44.374Z,23.84
2018-08-24T06:01:13.179Z,24.24
2018-08-24T06:03:41.869Z,24.43
2018-08-24T06:06:10.622Z,24.69
2018-08-24T06:08:39.372Z,24.31
2018-08-24T06:11:08.135Z,24.14
2018-08-24T06:13:36.863Z,24.23
2018-08-24T06:16:05.537Z,24.81
2018-08-24T06:18:34.283Z,24.88
2018-08-24T06:21:02.988Z,25.14
2018-08-24T06:23:31.671Z,25.19
2018-08-24T06:26:00.427Z,25.46
2018-08-24T06:28:29.218Z,25.56
2018-08-24T06:30:58.047Z,25.13
2018-08-24T06:33:26.818Z,25.03
2018-08-24T06:35:55.657Z,24.98
2018-08-24T06:38:24.559Z,25.64
2018-08-24T06:40:53.386Z,25.78
2018-08-24T06:43:22.150Z,26.07
2018-08-24T06:45:50.927Z,26.19
2018-08-24T06:48:19.720Z,25.83
2018-08-24T06:50:48.452Z,25.91
2018-08-24T06:53:17.317Z,26.05
2018-08-24T06:55:46.102Z,26.01
2018-08-24T06:58:14.818Z,26.33
2018-08-24T07:00:44.017Z,26.84
2018-08-24T07:03:12.903Z,26.97
2018-08-24T07:05:41.672Z,27.34
2018-08-24T07:08:10.413Z,27.48
2018-08-24T07:10:39.100Z,27.75
2018-08-24T07:13:07.950Z,28.13
2018-08-24T07:15:36.704Z,28.67
2018-08-24T07:18:05.598Z,28.47
2018-08-24T07:20:34.441Z,28.16
2018-08-24T07:23:03.149Z,28.79
2018-08-24T07:25:31.913Z,28.77
2018-08-24T07:28:00.652Z,28.02
2018-08-24T07:30:29.450Z,28.09
2018-08-24T07:32:58.217Z,28.53
2018-08-24T07:35:26.982Z,28.29
2018-08-24T07:37:55.757Z,28.04
2018-08-24T07:40:24.524Z,27.82
2018-08-24T07:42:53.254Z,27.11
2018-08-24T07:45:22.098Z,27.83
2018-08-24T07:47:50.873Z,28.84
2018-08-24T07:50:19.738Z,28.87
2018-08-24T07:52:48.442Z,29.19
2018-08-24T07:55:17.227Z,28.92
2018-08-24T07:57:45.951Z,28.35
2018-08-24T08:00:16.066Z,28.82
2018-08-24T08:02:46.347Z,29.01
2018-08-24T08:05:15.591Z,29.03
2018-08-24T08:07:44.541Z,28.77
2018-08-24T08:10:13.233Z,28.95
2018-08-24T08:12:41.911Z,28.37
2018-08-24T08:15:11.416Z,29.06
2018-08-24T08:17:40.906Z,28.94
2018-08-24T08:20:10.519Z,28.69
2018-08-24T08:22:39.286Z,29.21
2018-08-24T08:25:08.213Z,29.61
2018-08-24T08:27:36.939Z,30.15
2018-08-24T08:30:07.320Z,30.09
2018-08-24T08:32:36.123Z,30.88
2018-08-24T08:35:04.927Z,30.63
2018-08-24T08:37:33.568Z,30.22
2018-08-24T08:40:03.449Z,30.03
2018-08-24T08:42:32.119Z,29.61
2018-08-24T08:45:01.135Z,29.22
2018-08-24T08:47:29.883Z,29.74
2018-08-24T08:49:58.547Z,29.80
2018-08-24T08:52:27.210Z,30.04
2018-08-24T08:54:55.890Z,30.56
2018-08-24T08:57:24.550Z,30.41
2018-08-24T08:59:53.305Z,30.71
2018-08-24T09:02:22.104Z,30.60
2018-08-24T09:04:50.905Z,30.34
2018-08-24T09:07:19.742Z,30.44
2018-08-24T09:09:48.497Z,30.84
2018-08-24T09:12:17.314Z,30.63
2018-08-24T09:14:46.040Z,30.99
2018-08-24T09:17:20.276Z,31.11
2018-08-24T09:19:54.270Z,31.50
2018-08-24T09:22:28.179Z,31.16
2018-08-24T09:25:02.002Z,30.34
2018-08-24T09:27:42.289Z,30.33
2018-08-24T09:30:11.043Z,29.86
2018-08-24T09:32:39.854Z,30.02
2018-08-24T09:35:08.458Z,29.70
2018-08-24T09:37:38.459Z,30.52
2018-08-24T09:40:07.969Z,30.89
2018-08-24T09:42:36.708Z,30.82
2018-08-24T09:45:05.828Z,30.94
2018-08-24T09:47:39.696Z,30.97
2018-08-24T09:50:13.587Z,30.59
2018-08-24T09:52:46.512Z,30.59
2018-08-24T09:55:15.310Z,31.00
2018-08-24T09:57:44.190Z,30.79
2018-08-24T10:00:13.283Z,31.05
2018-08-24T10:02:43.285Z,31.33
2018-08-24T10:05:17.282Z,31.22
2018-08-24T10:08:48.940Z,31.38
2018-08-24T10:11:17.655Z,30.69
2018-08-24T10:13:46.387Z,30.71
2018-08-24T10:16:15.508Z,31.31
2018-08-24T10:18:44.305Z,31.60
2018-08-24T10:21:13.014Z,31.30
2018-08-24T10:23:42.009Z,31.27
2018-08-24T10:26:11.408Z,31.09
2018-08-24T10:28:40.297Z,29.66
2018-08-24T10:31:09.067Z,29.37
2018-08-24T10:33:37.900Z,29.49
2018-08-24T10:36:06.628Z,29.36
2018-08-24T10:38:35.348Z,29.31
2018-08-24T10:41:04.127Z,29.43
2018-08-24T10:43:32.821Z,28.20
2018-08-24T10:46:01.539Z,29.69
2018-08-24T10:48:30.247Z,28.61
2018-08-24T10:50:59.018Z,28.35
2018-08-24T10:53:27.662Z,29.00
2018-08-24T10:55:56.339Z,29.37
2018-08-24T10:58:25.108Z,29.56
2018-08-24T11:00:53.995Z,29.46
2018-08-24T11:03:22.758Z,30.50
2018-08-24T11:05:51.502Z,30.56
2018-08-24T11:08:20.243Z,30.55
2018-08-24T11:10:49.026Z,30.41
2018-08-24T11:13:17.780Z,31.09
2018-08-24T11:15:49.775Z,31.74
2018-08-24T11:18:19.038Z,32.44
2018-08-24T11:20:47.791Z,32.59
2018-08-24T11:23:16.586Z,32.82
2018-08-24T11:25:45.266Z,32.69
2018-08-24T11:28:13.951Z,32.35
2018-08-24T11:30:42.867Z,32.39
2018-08-24T11:33:11.724Z,32.62
2018-08-24T11:35:40.386Z,32.53
2018-08-24T11:38:09.134Z,32.81
2018-08-24T11:40:37.883Z,32.83
2018-08-24T11:43:06.770Z,32.48
2018-08-24T11:45:35.543Z,32.60
2018-08-24T11:48:04.495Z,33.21
2018-08-24T11:50:33.266Z,32.85
2018-08-24T11:53:01.981Z,32.09
2018-08-24T11:55:30.673Z,32.17
2018-08-24T11:57:59.420Z,32.12
2018-08-24T12:00:30.471Z,33.43
2018-08-24T12:02:59.794Z,33.92
2018-08-24T12:05:28.712Z,34.25
2018-08-24T12:07:57.667Z,33.53
2018-08-24T12:10:26.459Z,33.50
2018-08-24T12:12:55.597Z,33.08
2018-08-24T12:15:24.374Z,32.20
2018-08-24T12:17:53.438Z,32.28
2018-08-24T12:20:22.153Z,31.88
2018-08-24T12:22:50.814Z,32.58
2018-08-24T12:25:19.460Z,31.98
2018-08-24T12:27:48.134Z,31.23
2018-08-24T12:30:16.817Z,31.04
2018-08-24T12:32:45.516Z,31.35
2018-08-24T12:35:14.165Z,31.49
2018-08-24T12:37:44.477Z,32.29
2018-08-24T12:40:13.566Z,31.95
2018-08-24T12:42:42.214Z,31.93
2018-08-24T12:45:10.940Z,31.30
2018-08-24T12:47:39.586Z,31.35
2018-08-24T12:50:08.856Z,31.87
2018-08-24T12:52:37.483Z,31.68
2018-08-24T12:55:06.298Z,31.19
2018-08-24T12:57:34.950Z,30.45
2018-08-24T13:00:04.877Z,31.06
2018-08-24T13:02:33.557Z,31.23
2018-08-24T13:05:02.195Z,30.99
2018-08-24T13:07:30.840Z,31.24
2018-08-24T13:09:59.503Z,31.54
2018-08-24T13:12:28.189Z,31.67
2018-08-24T13:14:56.898Z,31.35
2018-08-24T13:17:25.695Z,30.86
2018-08-24T13:19:54.355Z,30.50
2018-08-24T13:22:23.066Z,30.20
2018-08-24T13:24:51.698Z,30.23
2018-08-24T13:27:20.339Z,30.34
2018-08-24T13:29:49.050Z,30.48
2018-08-24T13:32:17.731Z,30.15
2018-08-24T13:34:46.387Z,29.91
2018-08-24T13:37:15.078Z,29.82
2018-08-24T13:39:43.779Z,29.67
2018-08-24T13:42:12.482Z,29.67
2018-08-24T13:44:41.148Z,29.66
2018-08-24T13:47:09.807Z,29.68
2018-08-24T13:49:38.520Z,29.38
2018-08-24T13:52:07.182Z,29.48
2018-08-24T13:54:35.865Z,29.50
2018-08-24T13:57:04.559Z,29.16
2018-08-24T13:59:33.425Z,29.14
2018-08-24T14:02:02.182Z,29.37
2018-08-24T14:04:30.875Z,29.65
2018-08-24T14:06:59.584Z,29.84
2018-08-24T14:09:28.270Z,29.20
2018-08-24T14:11:56.934Z,29.10
2018-08-24T14:14:25.570Z,29.18
2018-08-24T14:16:54.376Z,29.13
2018-08-24T14:19:23.065Z,29.08
2018-08-24T14:21:51.737Z,28.99
2018-08-24T14:24:20.386Z,29.22
2018-08-24T14:26:49.089Z,29.26
2018-08-24T14:29:17.795Z,29.36
2018-08-24T14:31:46.641Z,29.38
2018-08-24T14:34:15.278Z,29.43
2018-08-24T14:36:43.955Z,29.31
2018-08-24T14:39:12.875Z,29.16
2018-08-24T14:41:41.529Z,29.07
2018-08-24T14:44:10.290Z,29.30
2018-08-24T14:46:39.000Z,29.43
2018-08-24T14:49:07.711Z,29.53
2018-08-24T14:51:36.467Z,29.25
2018-08-24T14:54:05.137Z,29.33
2018-08-24T14:56:33.864Z,29.29
2018-08-24T14:59:02.554Z,29.30
2018-08-24T15:01:31.189Z,29.18
2018-08-24T15:04:00.758Z,29.08
2018-08-24T15:06:29.429Z,29.09
2018-08-24T15:08:58.095Z,28.97
2018-08-24T15:11:26.755Z,28.93
2018-08-24T15:13:55.486Z,28.93
2018-08-24T15:16:24.177Z,28.88
2018-08-24T15:18:52.851Z,28.74
2018-08-24T15:21:21.498Z,28.67
2018-08-24T15:23:50.114Z,28.64
2018-08-24T15:26:18.803Z,28.58
2018-08-24T15:28:47.562Z,28.68
2018-08-24T15:31:16.274Z,28.62
2018-08-24T15:33:44.878Z,28.60
2018-08-24T15:36:13.522Z,28.57
2018-08-24T15:38:42.248Z,28.56
2018-08-24T15:41:10.866Z,28.53
2018-08-24T15:43:39.499Z,28.47
2018-08-24T15:46:08.311Z,28.40
2018-08-24T15:48:37.006Z,28.12
2018-08-24T15:51:05.977Z,27.95
2018-08-24T15:53:34.666Z,27.95
2018-08-24T15:56:03.328Z,28.02
2018-08-24T15:58:32.027Z,28.06
2018-08-24T16:01:00.729Z,28.04
2018-08-24T16:03:29.372Z,28.05
2018-08-24T16:05:58.005Z,27.96
2018-08-24T16:08:26.646Z,27.89
2018-08-24T16:10:55.270Z,27.82
2018-08-24T16:13:23.946Z,27.80
2018-08-24T16:15:52.640Z,27.73
2018-08-24T16:18:24.178Z,27.66
2018-08-24T16:20:53.894Z,27.55
2018-08-24T16:23:22.616Z,27.49
2018-08-24T16:25:51.278Z,27.46
2018-08-24T16:28:20.284Z,27.42
2018-08-24T16:30:49.035Z,27.42
2018-08-24T16:33:18.417Z,27.35
2018-08-24T16:35:47.062Z,27.20
2018-08-24T16:38:16.234Z,27.12
2018-08-24T16:40:44.932Z,27.08
2018-08-24T16:43:14.224Z,27.05
2018-08-24T16:45:42.915Z,26.94
2018-08-24T16:48:11.587Z,26.90
2018-08-24T16:50:40.204Z,26.83
2018-08-24T16:53:08.854Z,26.69
2018-08-24T16:55:37.499Z,26.60
2018-08-24T16:58:06.306Z,26.60
2018-08-24T17:00:34.914Z,26.48
2018-08-24T17:03:03.591Z,26.37
2018-08-24T17:05:32.254Z,26.30
2018-08-24T17:08:00.871Z,26.17
2018-08-24T17:10:29.516Z,26.10
2018-08-24T17:12:58.300Z,26.02
2018-08-24T17:15:26.952Z,25.92
2018-08-24T17:17:55.600Z,25.83
2018-08-24T17:20:24.402Z,25.71
2018-08-24T17:22:53.056Z,25.66
2018-08-24T17:25:21.731Z,25.60
2018-08-24T17:27:50.392Z,25.51
2018-08-24T17:30:19.052Z,25.44
2018-08-24T17:32:47.726Z,25.40
2018-08-24T17:35:16.423Z,25.38
2018-08-24T17:37:45.124Z,25.31
2018-08-24T17:40:13.753Z,25.34
2018-08-24T17:42:42.448Z,25.34
2018-08-24T17:45:11.170Z,25.29
2018-08-24T17:47:39.872Z,25.18
2018-08-24T17:50:08.586Z,25.19
2018-08-24T17:52:37.902Z,25.15
2018-08-24T17:55:06.678Z,25.10
2018-08-24T17:57:35.298Z,25.08
2018-08-24T18:00:05.351Z,25.06
2018-08-24T18:02:34.125Z,25.00
2018-08-24T18:05:02.817Z,24.96
2018-08-24T18:07:31.500Z,24.93
2018-08-24T18:10:00.183Z,24.86
2018-08-24T18:12:28.802Z,24.74
2018-08-24T18:14:57.596Z,24.66
2018-08-24T18:17:26.241Z,24.61
2018-08-24T18:19:54.938Z,24.55
2018-08-24T18:22:23.665Z,24.52
2018-08-24T18:24:52.298Z,24.46
2018-08-24T18:27:21.090Z,24.43
2018-08-24T18:29:49.799Z,24.39
2018-08-24T18:32:18.399Z,24.36
2018-08-24T18:34:47.078Z,24.33
2018-08-24T18:37:15.831Z,24.31
2018-08-24T18:39:44.457Z,24.27
2018-08-24T18:42:13.079Z,24.19
2018-08-24T18:44:41.733Z,24.03
2018-08-24T18:47:10.595Z,23.93
2018-08-24T18:49:39.875Z,23.88
2018-08-24T18:52:08.599Z,23.91
2018-08-24T18:54:37.257Z,23.90
2018-08-24T18:57:06.051Z,23.84
2018-08-24T18:59:34.741Z,23.76
2018-08-24T19:02:03.725Z,23.68
2018-08-24T19:04:32.364Z,23.69
2018-08-24T19:07:01.083Z,23.67
2018-08-24T19:09:29.785Z,23.65
2018-08-24T19:12:03.728Z,23.66
2018-08-24T19:14:32.359Z,23.63
2018-08-24T19:17:01.142Z,23.48
2018-08-24T19:19:34.905Z,23.43
2018-08-24T19:22:04.590Z,23.37
2018-08-24T19:24:33.309Z,23.31
2018-08-24T19:27:01.994Z,23.27
2018-08-24T19:29:35.930Z,23.32
2018-08-24T19:32:04.630Z,23.35
2018-08-24T19:34:33.347Z,23.56
2018-08-24T19:37:02.035Z,23.54
2018-08-24T19:39:30.655Z,23.52
2018-08-24T19:42:04.353Z,23.49
2018-08-24T19:44:32.958Z,23.47
2018-08-24T19:47:01.608Z,23.42
2018-08-24T19:49:30.345Z,23.35
2018-08-24T19:51:59.025Z,23.31
2018-08-24T19:54:27.749Z,23.29
2018-08-24T19:57:00.494Z,23.20
2018-08-24T19:59:29.165Z,23.02
2018-08-24T20:01:57.762Z,22.86
2018-08-24T20:04:26.442Z,22.82
2018-08-24T20:07:00.202Z,22.79
2018-08-24T20:09:33.970Z,22.75
2018-08-24T20:12:02.726Z,22.77
2018-08-24T20:14:36.566Z,22.75
2018-08-24T20:17:10.402Z,22.71
2018-08-24T20:19:39.038Z,22.71
2018-08-24T20:22:09.630Z,22.68
2018-08-24T20:24:38.379Z,22.64
2018-08-24T20:27:06.974Z,22.55
2018-08-24T20:29:35.612Z,22.44
2018-08-24T20:32:04.305Z,22.40
2018-08-24T20:34:32.938Z,22.37
2018-08-24T20:37:01.558Z,22.34
2018-08-24T20:39:30.213Z,22.31
2018-08-24T20:41:58.914Z,22.24
2018-08-24T20:44:27.577Z,22.19
2018-08-24T20:46:56.226Z,22.14
2018-08-24T20:49:24.966Z,22.07
2018-08-24T20:51:53.682Z,22.02
2018-08-24T20:54:22.425Z,21.97
2018-08-24T20:56:51.096Z,21.91
2018-08-24T20:59:19.789Z,21.88
2018-08-24T21:01:48.437Z,21.85
2018-08-24T21:04:17.141Z,21.80
2018-08-24T21:06:45.849Z,21.73
2018-08-24T21:09:14.509Z,21.67
2018-08-24T21:11:43.150Z,21.66
2018-08-24T21:14:11.795Z,21.64
2018-08-24T21:16:40.550Z,21.64
2018-08-24T21:19:09.174Z,21.63
2018-08-24T21:21:38.098Z,21.55
2018-08-24T21:24:07.154Z,21.52
2018-08-24T21:26:35.819Z,21.46
2018-08-24T21:29:04.543Z,21.42
2018-08-24T21:31:33.163Z,21.41
2018-08-24T21:34:01.776Z,21.36
2018-08-24T21:36:30.402Z,21.30
2018-08-24T21:38:59.025Z,21.27
2018-08-24T21:41:27.704Z,21.24
2018-08-24T21:43:56.388Z,21.23
2018-08-24T21:46:25.047Z,21.16
2018-08-24T21:48:53.671Z,21.11
2018-08-24T21:51:23.127Z,21.08
2018-08-24T21:53:51.758Z,21.06
2018-08-24T21:56:20.413Z,21.04
2018-08-24T21:58:49.050Z,21.07
2018-08-24T22:01:17.783Z,21.02
2018-08-24T22:03:46.378Z,20.11
2018-08-24T22:06:15.017Z,20.94
2018-08-24T22:08:43.638Z,20.94
2018-08-24T22:11:12.404Z,20.90
2018-08-24T22:13:41.099Z,20.89
2018-08-24T22:16:09.716Z,20.90
2018-08-24T22:18:38.357Z,20.85
2018-08-24T22:21:07.055Z,20.83
2018-08-24T22:23:35.687Z,20.81
2018-08-24T22:26:04.323Z,20.77
2018-08-24T22:28:33.009Z,20.72
2018-08-24T22:31:01.703Z,20.67
2018-08-24T22:33:30.360Z,20.66
2018-08-24T22:35:59.678Z,20.64
2018-08-24T22:38:28.422Z,20.60
2018-08-24T22:40:57.142Z,20.53
2018-08-24T22:43:31.066Z,17.86
2018-08-24T22:45:59.860Z,20.43
2018-08-24T22:48:28.591Z,20.39
2018-08-24T22:50:57.300Z,20.34
2018-08-24T22:53:25.994Z,20.33
2018-08-24T22:55:54.696Z,20.22
2018-08-24T22:58:23.417Z,20.14
2018-08-24T23:00:52.116Z,20.07
2018-08-24T23:03:20.851Z,20.03
2018-08-24T23:05:49.525Z,19.98
2018-08-24T23:08:18.225Z,19.92
2018-08-24T23:10:46.981Z,19.85
2018-08-24T23:13:15.652Z,19.75
2018-08-24T23:15:44.365Z,19.68
2018-08-24T23:18:13.064Z,19.58
2018-08-24T23:20:41.872Z,19.38
2018-08-24T23:23:10.567Z,19.23
2018-08-24T23:25:39.267Z,19.05
2018-08-24T23:28:07.962Z,18.86
2018-08-24T23:30:36.674Z,18.82
2018-08-24T23:33:05.555Z,18.85
2018-08-24T23:35:34.239Z,18.97
2018-08-24T23:38:02.952Z,19.05
2018-08-24T23:40:31.700Z,19.04
2018-08-24T23:43:00.414Z,19.07
2018-08-24T23:45:29.147Z,19.07
2018-08-24T23:47:57.837Z,19.13
2018-08-24T23:50:26.527Z,19.30
2018-08-24T23:52:55.255Z,19.44
2018-08-24T23:55:24.079Z,19.51
2018-08-24T23:57:52.856Z,19.64
